createdAt,value
2023-10-30T00:02:46.054Z,29.42
2023-10-30T00:12:54.059Z,24.38
2023-10-30T00:22:56.022Z,30.90
2023-10-30T00:33:00.896Z,30.33
2023-10-30T00:43:02.925Z,33.88
2023-10-30T00:53:04.868Z,32.30
2023-10-30T01:03:16.106Z,20.55
2023-10-30T01:13:20.752Z,46.95
2023-10-30T01:23:27.323Z,27.77
2023-10-30T01:33:43.951Z,20.83
2023-10-30T01:43:46.025Z,25.52
2023-10-30T01:53:49.677Z,26.25
2023-10-30T02:03:55.152Z,18.15
2023-10-30T02:13:57.770Z,31.15
2023-10-30T02:24:06.990Z,23.70
2023-10-30T02:34:15.745Z,22.53
2023-10-30T02:44:18.090Z,19.47
2023-10-30T02:54:21.565Z,19.58
2023-10-30T03:04:23.758Z,23.73
2023-10-30T03:14:41.086Z,24.65
2023-10-30T03:24:46.595Z,28.52
2023-10-30T03:34:50.009Z,22.08
2023-10-30T03:44:52.850Z,18.70
2023-10-30T03:54:54.853Z,16.88
2023-10-30T04:05:02.087Z,15.95
2023-10-30T04:15:07.976Z,36.88
2023-10-30T04:25:12.063Z,26.90
2023-10-30T04:35:14.402Z,27.73
2023-10-30T04:45:16.339Z,33.72
2023-10-30T04:55:18.311Z,33.20
2023-10-30T05:05:20.345Z,34.35
2023-10-30T05:15:28.348Z,33.85
2023-10-30T05:25:41.788Z,43.47
2023-10-30T05:35:44.860Z,37.55
2023-10-30T05:45:47.712Z,45.75
2023-10-30T05:55:49.580Z,33.25
2023-10-30T06:05:51.582Z,18.38
2023-10-30T06:15:55.417Z,24.95
2023-10-30T06:25:57.458Z,21.88
2023-10-30T06:36:00.862Z,30.77
2023-10-30T06:46:06.838Z,13.23
2023-10-30T06:56:34.790Z,18.98
2023-10-30T07:06:55.320Z,50.35
2023-10-30T07:17:03.790Z,41.90
2023-10-30T07:27:07.361Z,17.98
2023-10-30T07:37:09.293Z,24.00
2023-10-30T07:47:13.352Z,21.33
2023-10-30T07:57:19.091Z,17.55
2023-10-30T08:07:21.626Z,15.43
2023-10-30T08:17:23.645Z,20.52
2023-10-30T08:27:26.065Z,32.67
2023-10-30T08:37:28.361Z,19.80
2023-10-30T08:47:33.383Z,18.00
2023-10-30T08:57:35.295Z,14.05
2023-10-30T09:07:37.441Z,25.55
2023-10-30T09:17:39.499Z,13.57
2023-10-30T09:27:41.646Z,15.25
2023-10-30T09:37:43.493Z,15.48
2023-10-30T09:47:46.626Z,26.48
2023-10-30T09:57:49.748Z,20.27
2023-10-30T10:08:07.004Z,14.90
2023-10-30T10:18:23.966Z,19.25
2023-10-30T10:28:35.280Z,20.52
2023-10-30T10:38:37.217Z,12.10
2023-10-30T10:48:39.169Z,21.70
2023-10-30T10:59:00.938Z,19.33
2023-10-30T11:09:15.547Z,16.63
2023-10-30T11:19:21.365Z,12.25
2023-10-30T11:29:23.938Z,10.18
2023-10-30T11:39:25.880Z,17.40
2023-10-30T11:49:40.384Z,8.63
2023-10-30T11:59:44.532Z,12.23
2023-10-30T12:09:46.704Z,8.20
2023-10-30T12:19:49.557Z,7.38
2023-10-30T12:30:00.803Z,16.67
2023-10-30T12:40:13.694Z,16.38
2023-10-30T12:50:16.702Z,12.65
2023-10-30T13:00:20.063Z,9.68
2023-10-30T13:10:22.104Z,8.00
2023-10-30T13:20:28.244Z,17.60
2023-10-30T13:30:31.009Z,17.38
2023-10-30T13:40:32.930Z,5.55
2023-10-30T13:50:34.765Z,9.45
2023-10-30T14:00:36.805Z,11.05
2023-10-30T14:10:41.368Z,16.88
2023-10-30T14:20:43.238Z,19.10
2023-10-30T14:30:45.299Z,12.30
2023-10-30T14:40:47.310Z,26.77
2023-10-30T14:50:49.280Z,14.32
2023-10-30T15:00:51.213Z,27.48
2023-10-30T15:10:58.083Z,27.65
2023-10-30T15:21:00.051Z,57.60
2023-10-30T15:31:05.288Z,49.80
2023-10-30T15:41:07.242Z,48.45
2023-10-30T15:51:09.223Z,47.38
2023-10-30T16:01:11.281Z,50.50
2023-10-30T16:21:28.514Z,96.85
2023-10-30T16:31:36.661Z,74.55
2023-10-30T16:41:48.340Z,142.88
2023-10-30T16:51:52.941Z,58.60
2023-10-30T17:01:57.728Z,54.17
2023-10-30T17:12:06.135Z,59.35
2023-10-30T17:22:08.471Z,74.95
2023-10-30T17:32:10.396Z,68.53
2023-10-30T17:42:14.546Z,54.25
2023-10-30T17:52:18.057Z,58.45
2023-10-30T18:02:20.030Z,80.63
2023-10-30T18:12:22.088Z,83.20
2023-10-30T18:22:29.809Z,66.68
2023-10-30T18:32:31.654Z,66.20
2023-10-30T18:42:33.607Z,41.17
2023-10-30T18:52:35.550Z,39.10
2023-10-30T19:02:37.554Z,32.72
2023-10-30T19:12:40.084Z,39.03
2023-10-30T19:22:44.009Z,36.72
2023-10-30T19:32:47.484Z,44.33
2023-10-30T19:42:55.066Z,31.40
2023-10-30T20:03:31.630Z,45.63
2023-10-30T20:13:36.661Z,35.30
2023-10-30T20:23:38.552Z,35.90
2023-10-30T20:33:40.512Z,41.53
2023-10-30T20:43:42.444Z,43.08
2023-10-30T20:53:44.353Z,45.78
2023-10-30T21:03:46.481Z,45.92
2023-10-30T21:13:48.725Z,55.03
2023-10-30T21:23:50.700Z,51.75
2023-10-30T21:33:52.591Z,50.05
2023-10-30T21:44:13.149Z,50.13
2023-10-30T21:54:14.950Z,44.00
2023-10-30T22:04:18.419Z,52.45
2023-10-30T22:14:22.369Z,38.72
2023-10-30T22:24:30.894Z,43.63
2023-10-30T22:34:32.775Z,19.55
2023-10-30T22:44:34.752Z,12.70
2023-10-30T22:54:36.666Z,25.02
2023-10-30T23:04:40.479Z,20.60
2023-10-30T23:14:45.638Z,22.63
2023-10-30T23:24:47.453Z,12.98
2023-10-30T23:34:49.413Z,17.08
2023-10-30T23:44:51.302Z,13.07
2023-10-30T23:54:53.165Z,12.10
